Aérodrome :
LOGIN :

S'inscrire | Disclaimer

   EN    FR    IT 

 










Légende :    VFR   VFR Marginal   IFR   IFR Intensif   IFR Très Intensif
Visi : 
Plafond : 
>= 8 km
>= 3000ft
5 à 8 km
1000 à 3000 ft
1500m à 5 km
500 à 1000 ft
800 à 1500m
200 à 500 ft
< 800m
< 200 ft
Symboles :   Orages  Brouillard  Fortes neiges  Fortes précipitations  Vent > 20 kt
SIGMETs :   Divers  Orages  Givrage  Turbulence  Onde Orograph.  Cendres Volcan.






- Altitude de l'aérodrome : 312 ft
- Code IATA : SAW


LTFJ - Sabiha Gokcen

DERNIER METAR :
  • 210320Z 03013KT 8000 -SHRA FEW009 BKN025 06/05 Q1014 NOSIG RMK RWY24 02013KT

METARs EXPIRÉS :
  • 210250Z 03013KT 8000 -SHRA FEW009 BKN025 06/05 Q1014 NOSIG RMK RWY24 01011KT
  • 210220Z 03013KT 8000 -SHRA FEW009 BKN025 06/05 Q1014 NOSIG RMK RWY24 02012KT
  • 210150Z 04014KT 8000 -SHRA FEW009 BKN025 06/05 Q1013 NOSIG RMK RWY24 02013KT
  • 210120Z 03013KT 8000 -SHRA SCT009 BKN025 06/05 Q1013 NOSIG RMK RWY24 01011KT
  • 210050Z 04014KT 8000 -SHRA SCT009 BKN025 06/05 Q1013 NOSIG RMK RWY24 02013KT

TAF TAF LTFJ
Valide du 21 à 00h jusqu'au 22 à 00h UTC


202240Z 2100/2124 03018KT 8000 -SHRA SCT007 BKN025
TEMPO 2101/2105 03018G28KT 4000 SHRA BKN007 BKN020
TEMPO 2107/2111 03018G28KT
TEMPO 2112/2115 03018G28KT
BECMG 2116/2119 03008KT SCT025 BKN070



MET'MAP, la Météo Aéronautique d'un coup d'oeil ! - Copyright ORBIFLY Décembre 2007 - Disclaimer

ORBIFLY MET'MAP TEAM :

Programmation & Développement : Alexandra Zaïnal
Sur une idée originale de : Baudouin d'Aumeries
Assistance à la programmation : Marc-Olivier Méhu
Soutien technique & logistique : Manuel Goepfert

Contact : metmap@orbifly.com




SOURCES & CREDITS :

   NOAA